createdAt,value
2018-05-27T00:02:17.850Z,67.20
2018-05-27T00:04:45.286Z,67.20
2018-05-27T00:07:12.232Z,67.20
2018-05-27T00:09:39.137Z,67.50
2018-05-27T00:12:06.051Z,67.20
2018-05-27T00:14:32.899Z,67.50
2018-05-27T00:16:59.763Z,67.70
2018-05-27T00:19:26.713Z,67.80
2018-05-27T00:21:53.563Z,67.90
2018-05-27T00:24:20.450Z,68.00
2018-05-27T00:26:47.387Z,68.20
2018-05-27T00:29:14.248Z,68.40
2018-05-27T00:31:41.136Z,68.60
2018-05-27T00:34:08.152Z,68.90
2018-05-27T00:36:35.391Z,69.40
2018-05-27T00:39:02.675Z,69.60
2018-05-27T00:41:29.925Z,69.80
2018-05-27T00:43:57.226Z,69.80
2018-05-27T00:46:24.082Z,69.80
2018-05-27T00:48:51.051Z,69.90
2018-05-27T00:51:17.927Z,69.90
2018-05-27T00:53:59.682Z,69.90
2018-05-27T00:56:26.961Z,69.90
2018-05-27T00:58:53.835Z,69.90
2018-05-27T01:01:20.803Z,69.90
2018-05-27T01:03:47.700Z,69.70
2018-05-27T01:06:14.526Z,69.80
2018-05-27T01:08:41.488Z,69.80
2018-05-27T01:11:08.357Z,69.80
2018-05-27T01:13:35.592Z,69.90
2018-05-27T01:16:02.487Z,69.90
2018-05-27T01:18:29.415Z,69.80
2018-05-27T01:20:56.263Z,69.90
2018-05-27T01:23:23.132Z,69.70
2018-05-27T01:25:50.082Z,69.60
2018-05-27T01:28:16.926Z,69.50
2018-05-27T01:30:43.851Z,69.50
2018-05-27T01:33:10.763Z,69.70
2018-05-27T01:35:37.627Z,69.80
2018-05-27T01:38:04.480Z,69.50
2018-05-27T01:40:31.373Z,69.90
2018-05-27T01:42:58.327Z,70.20
2018-05-27T01:45:25.179Z,70.30
2018-05-27T01:47:52.097Z,70.40
2018-05-27T01:50:18.996Z,70.60
2018-05-27T01:52:45.858Z,70.80
2018-05-27T01:55:12.775Z,71.20
2018-05-27T01:57:39.633Z,71.40
2018-05-27T02:00:06.475Z,71.40
2018-05-27T02:02:33.345Z,71.60
2018-05-27T02:05:00.190Z,71.70
2018-05-27T02:07:27.080Z,71.20
2018-05-27T02:09:54.147Z,71.10
2018-05-27T02:12:20.981Z,71.10
2018-05-27T02:14:47.852Z,70.80
2018-05-27T02:17:14.787Z,70.90
2018-05-27T02:19:41.632Z,70.80
2018-05-27T02:22:08.514Z,70.50
2018-05-27T02:24:35.459Z,70.80
2018-05-27T02:27:02.312Z,71.00
2018-05-27T02:29:29.184Z,71.20
2018-05-27T02:31:56.047Z,71.40
2018-05-27T02:34:23.000Z,71.40
2018-05-27T02:36:49.845Z,71.20
2018-05-27T02:39:16.835Z,71.30
2018-05-27T02:41:43.702Z,71.30
2018-05-27T02:44:10.656Z,71.40
2018-05-27T02:46:37.585Z,71.50
2018-05-27T02:49:04.427Z,71.60
2018-05-27T02:51:31.387Z,71.60
2018-05-27T02:53:58.667Z,71.60
2018-05-27T02:56:25.503Z,71.60
2018-05-27T02:58:52.768Z,71.80
2018-05-27T03:01:20.021Z,71.30
2018-05-27T03:03:46.881Z,71.30
2018-05-27T03:06:14.139Z,71.20
2018-05-27T03:08:41.045Z,71.20
2018-05-27T03:11:08.003Z,71.20
2018-05-27T03:13:34.860Z,71.30
2018-05-27T03:16:01.740Z,71.40
2018-05-27T03:18:28.595Z,71.80
2018-05-27T03:20:55.473Z,71.80
2018-05-27T03:23:22.395Z,71.80
2018-05-27T03:25:49.353Z,71.80
2018-05-27T03:28:16.204Z,71.90
2018-05-27T03:30:43.074Z,71.50
2018-05-27T03:33:10.020Z,71.60
2018-05-27T03:35:37.075Z,71.80
2018-05-27T03:38:03.940Z,72.00
2018-05-27T03:40:30.914Z,71.70
2018-05-27T03:42:57.770Z,71.90
2018-05-27T03:45:24.643Z,72.20
2018-05-27T03:47:51.491Z,71.90
2018-05-27T03:50:18.378Z,71.70
2018-05-27T03:52:45.238Z,71.90
2018-05-27T03:55:12.083Z,71.10
2018-05-27T03:57:39.012Z,71.30
2018-05-27T04:00:05.852Z,71.00
2018-05-27T04:02:32.815Z,71.00
2018-05-27T04:05:11.464Z,71.60
2018-05-27T04:07:50.331Z,71.30
2018-05-27T04:10:17.203Z,71.30
2018-05-27T04:12:44.121Z,71.40
2018-05-27T04:15:10.978Z,71.70
2018-05-27T04:17:37.898Z,71.80
2018-05-27T04:20:05.145Z,71.50
2018-05-27T04:22:32.056Z,71.50
2018-05-27T04:24:59.007Z,71.30
2018-05-27T04:27:25.881Z,70.80
2018-05-27T04:29:52.835Z,70.80
2018-05-27T04:32:19.725Z,71.00
2018-05-27T04:34:46.576Z,71.50
2018-05-27T04:37:13.490Z,71.40
2018-05-27T04:39:40.671Z,71.40
2018-05-27T04:42:07.612Z,70.80
2018-05-27T04:44:34.475Z,70.60
2018-05-27T04:47:01.495Z,70.50
2018-05-27T04:49:28.849Z,70.60
2018-05-27T04:51:55.722Z,70.60
2018-05-27T04:54:23.032Z,70.90
2018-05-27T04:56:49.878Z,70.90
2018-05-27T04:59:16.835Z,70.80
2018-05-27T05:01:43.694Z,70.90
2018-05-27T05:04:10.657Z,71.10
2018-05-27T05:06:37.505Z,70.70
2018-05-27T05:09:05.235Z,71.00
2018-05-27T05:11:32.594Z,72.20
2018-05-27T05:13:59.527Z,72.20
2018-05-27T05:16:26.375Z,72.00
2018-05-27T05:18:53.255Z,72.20
2018-05-27T05:21:20.191Z,72.20
2018-05-27T05:23:47.254Z,72.20
2018-05-27T05:26:14.106Z,72.70
2018-05-27T05:28:41.016Z,73.10
2018-05-27T05:31:07.943Z,73.30
2018-05-27T05:33:34.783Z,73.70
2018-05-27T05:36:01.732Z,73.40
2018-05-27T05:38:28.592Z,73.60
2018-05-27T05:40:55.568Z,72.90
2018-05-27T05:43:22.424Z,71.90
2018-05-27T05:45:49.341Z,71.80
2018-05-27T05:48:16.239Z,71.30
2018-05-27T05:50:43.103Z,71.90
2018-05-27T05:53:09.955Z,71.80
2018-05-27T05:55:36.799Z,71.20
2018-05-27T05:58:03.645Z,71.40
2018-05-27T06:00:30.549Z,71.70
2018-05-27T06:02:57.452Z,71.70
2018-05-27T06:05:24.696Z,70.80
2018-05-27T06:07:51.543Z,70.80
2018-05-27T06:10:18.465Z,69.90
2018-05-27T06:12:45.322Z,68.60
2018-05-27T06:15:12.161Z,68.90
2018-05-27T06:17:39.031Z,69.10
2018-05-27T06:20:05.893Z,68.60
2018-05-27T06:22:32.747Z,68.10
2018-05-27T06:24:59.618Z,67.90
2018-05-27T06:27:26.462Z,67.80
2018-05-27T06:29:53.316Z,67.20
2018-05-27T06:32:20.212Z,67.80
2018-05-27T06:34:47.135Z,64.90
2018-05-27T06:37:13.982Z,66.30
2018-05-27T06:39:40.964Z,65.10
2018-05-27T06:42:07.851Z,65.20
2018-05-27T06:44:34.740Z,65.10
2018-05-27T06:47:02.039Z,66.20
2018-05-27T06:49:28.894Z,66.20
2018-05-27T06:51:55.864Z,65.90
2018-05-27T06:54:22.811Z,66.00
2018-05-27T06:56:49.691Z,65.70
2018-05-27T06:59:16.627Z,66.00
2018-05-27T07:01:43.479Z,65.80
2018-05-27T07:04:10.359Z,65.80
2018-05-27T07:06:37.305Z,66.30
2018-05-27T07:09:05.127Z,66.60
2018-05-27T07:11:32.064Z,65.80
2018-05-27T07:13:59.315Z,65.80
2018-05-27T07:16:26.213Z,65.80
2018-05-27T07:18:53.468Z,65.00
2018-05-27T07:21:20.330Z,65.00
2018-05-27T07:23:47.168Z,65.60
2018-05-27T07:26:14.048Z,65.40
2018-05-27T07:28:40.963Z,65.50
2018-05-27T07:31:07.815Z,65.30
2018-05-27T07:33:34.659Z,64.90
2018-05-27T07:36:01.741Z,64.40
2018-05-27T07:38:28.591Z,64.50
2018-05-27T07:40:56.290Z,63.70
2018-05-27T07:43:23.226Z,63.40
2018-05-27T07:45:50.095Z,63.20
2018-05-27T07:48:16.925Z,62.80
2018-05-27T07:50:43.815Z,63.50
2018-05-27T07:53:10.767Z,62.70
2018-05-27T07:55:37.630Z,62.40
2018-05-27T07:58:04.577Z,62.50
2018-05-27T08:00:31.471Z,62.30
2018-05-27T08:02:58.395Z,61.40
2018-05-27T08:05:25.355Z,61.80
2018-05-27T08:07:52.216Z,61.60
2018-05-27T08:10:19.114Z,61.30
2018-05-27T08:12:46.052Z,61.10
2018-05-27T08:15:12.907Z,61.40
2018-05-27T08:17:39.768Z,61.10
2018-05-27T08:20:06.775Z,60.60
2018-05-27T08:22:33.557Z,60.00
2018-05-27T08:25:00.499Z,60.30
2018-05-27T08:27:27.388Z,60.20
2018-05-27T08:29:54.275Z,60.60
2018-05-27T08:32:21.141Z,61.30
2018-05-27T08:34:47.990Z,61.00
2018-05-27T08:37:14.848Z,60.40
2018-05-27T08:39:41.753Z,60.60
2018-05-27T08:42:08.730Z,60.70
2018-05-27T08:44:35.674Z,60.80
2018-05-27T08:47:02.582Z,60.60
2018-05-27T08:49:29.707Z,60.40
2018-05-27T08:51:56.575Z,60.40
2018-05-27T08:54:23.672Z,60.80
2018-05-27T08:56:50.536Z,60.70
2018-05-27T08:59:17.852Z,59.40
2018-05-27T09:01:44.720Z,59.40
2018-05-27T09:04:11.611Z,60.00
2018-05-27T09:06:38.555Z,59.70
2018-05-27T09:09:05.419Z,59.70
2018-05-27T09:11:32.343Z,59.30
2018-05-27T09:13:59.194Z,59.80
2018-05-27T09:16:26.081Z,59.60
2018-05-27T09:18:53.007Z,59.40
2018-05-27T09:21:19.884Z,58.80
2018-05-27T09:23:46.779Z,58.90
2018-05-27T09:26:14.180Z,58.30
2018-05-27T09:28:41.151Z,58.30
2018-05-27T09:31:08.010Z,57.60
2018-05-27T09:33:34.984Z,57.70
2018-05-27T09:36:01.880Z,57.10
2018-05-27T09:38:28.744Z,56.50
2018-05-27T09:40:56.054Z,56.20
2018-05-27T09:43:22.907Z,56.20
2018-05-27T09:45:49.772Z,56.20
2018-05-27T09:48:16.632Z,56.20
2018-05-27T09:50:43.578Z,57.10
2018-05-27T09:53:10.424Z,57.10
2018-05-27T09:55:37.283Z,56.70
2018-05-27T09:58:04.330Z,56.50
2018-05-27T10:00:31.110Z,56.80
2018-05-27T10:02:57.971Z,56.10
2018-05-27T10:05:24.926Z,55.90
2018-05-27T10:07:51.798Z,55.70
2018-05-27T10:10:18.760Z,55.40
2018-05-27T10:12:45.607Z,55.80
2018-05-27T10:15:12.554Z,55.50
2018-05-27T10:17:39.519Z,55.50
2018-05-27T10:20:06.379Z,55.00
2018-05-27T10:22:33.236Z,54.80
2018-05-27T10:25:00.103Z,55.40
2018-05-27T10:27:26.951Z,55.10
2018-05-27T10:29:53.857Z,55.00
2018-05-27T10:32:20.743Z,55.00
2018-05-27T10:34:47.867Z,54.70
2018-05-27T10:37:14.732Z,55.30
2018-05-27T10:39:41.587Z,55.70
2018-05-27T10:42:08.431Z,55.20
2018-05-27T10:44:35.302Z,55.80
2018-05-27T10:47:02.150Z,55.30
2018-05-27T10:49:29.282Z,55.50
2018-05-27T10:51:56.129Z,56.00
2018-05-27T10:54:23.013Z,56.40
2018-05-27T10:56:49.962Z,56.50
2018-05-27T10:59:16.832Z,55.10
2018-05-27T11:01:43.675Z,55.60
2018-05-27T11:04:10.539Z,54.90
2018-05-27T11:06:37.404Z,55.10
2018-05-27T11:09:05.013Z,54.20
2018-05-27T11:11:32.273Z,54.60
2018-05-27T11:13:59.118Z,54.60
2018-05-27T11:16:26.031Z,54.60
2018-05-27T11:18:52.908Z,54.40
2018-05-27T11:21:19.853Z,54.70
2018-05-27T11:23:46.778Z,53.80
2018-05-27T11:26:13.643Z,53.20
2018-05-27T11:28:40.883Z,53.50
2018-05-27T11:31:07.836Z,53.50
2018-05-27T11:33:34.766Z,53.60
2018-05-27T11:36:01.847Z,53.40
2018-05-27T11:38:28.732Z,52.60
2018-05-27T11:40:55.599Z,53.10
2018-05-27T11:43:22.905Z,53.20
2018-05-27T11:45:49.761Z,53.20
2018-05-27T11:48:16.887Z,52.90
2018-05-27T11:50:44.151Z,53.80
2018-05-27T11:53:11.603Z,53.20
2018-05-27T11:55:38.528Z,53.20
2018-05-27T11:58:05.472Z,52.50
2018-05-27T12:00:32.337Z,52.80
2018-05-27T12:02:59.188Z,53.30
2018-05-27T12:05:26.068Z,53.40
2018-05-27T12:07:52.998Z,54.70
2018-05-27T12:10:19.863Z,54.20
2018-05-27T12:12:46.727Z,53.20
2018-05-27T12:15:13.716Z,52.00
2018-05-27T12:17:40.740Z,52.70
2018-05-27T12:20:07.721Z,53.10
2018-05-27T12:22:34.685Z,53.50
2018-05-27T12:25:01.728Z,52.20
2018-05-27T12:27:28.683Z,51.10
2018-05-27T12:29:55.669Z,51.80
2018-05-27T12:32:22.677Z,52.60
2018-05-27T12:34:50.029Z,50.50
2018-05-27T12:37:17.017Z,50.50
2018-05-27T12:39:46.832Z,48.80
2018-05-27T12:42:14.547Z,49.30
2018-05-27T12:44:41.577Z,49.30
2018-05-27T12:47:08.560Z,49.30
2018-05-27T12:49:35.581Z,49.70
2018-05-27T12:52:03.292Z,49.30
2018-05-27T12:54:30.305Z,49.80
2018-05-27T12:56:57.358Z,50.20
2018-05-27T12:59:25.052Z,50.80
2018-05-27T13:01:52.727Z,50.20
2018-05-27T13:04:20.099Z,50.30
2018-05-27T13:06:47.613Z,50.70
2018-05-27T13:09:15.059Z,50.70
2018-05-27T13:11:42.047Z,50.60
2018-05-27T13:14:09.075Z,50.80
2018-05-27T13:16:36.266Z,52.60
2018-05-27T13:19:03.674Z,53.10
2018-05-27T13:21:33.324Z,53.10
2018-05-27T13:24:00.709Z,52.70
2018-05-27T13:26:28.663Z,52.70
2018-05-27T13:28:56.577Z,52.80
2018-05-27T13:31:23.434Z,52.20
2018-05-27T13:33:50.301Z,52.20
2018-05-27T13:36:17.403Z,52.20
2018-05-27T13:38:44.361Z,52.10
2018-05-27T13:41:11.258Z,52.20
2018-05-27T13:43:38.647Z,51.10
2018-05-27T13:46:05.502Z,51.10
2018-05-27T13:48:32.463Z,49.70
2018-05-27T13:51:00.314Z,50.80
2018-05-27T13:53:27.621Z,51.00
2018-05-27T13:55:54.515Z,51.00
2018-05-27T13:58:21.491Z,51.40
2018-05-27T14:00:48.404Z,50.60
2018-05-27T14:03:15.358Z,51.50
2018-05-27T14:05:42.238Z,51.60
2018-05-27T14:08:09.171Z,51.90
2018-05-27T14:10:36.055Z,52.90
2018-05-27T14:13:02.926Z,53.40
2018-05-27T14:15:29.840Z,54.00
2018-05-27T14:17:56.865Z,53.80
2018-05-27T14:20:24.147Z,55.00
2018-05-27T14:22:51.413Z,56.50
2018-05-27T14:25:18.805Z,56.80
2018-05-27T14:27:45.682Z,56.80
2018-05-27T14:30:12.932Z,57.70
2018-05-27T14:32:39.939Z,58.30
2018-05-27T14:35:07.291Z,58.80
2018-05-27T14:37:34.117Z,58.80
2018-05-27T14:40:00.977Z,59.10
2018-05-27T14:42:27.846Z,58.70
2018-05-27T14:44:54.836Z,58.10
2018-05-27T14:47:21.798Z,58.40
2018-05-27T14:49:48.668Z,58.40
2018-05-27T14:52:15.887Z,58.40
2018-05-27T14:54:42.845Z,58.40
2018-05-27T14:57:09.800Z,58.70
2018-05-27T14:59:36.708Z,58.50
2018-05-27T15:02:03.617Z,58.70
2018-05-27T15:04:30.468Z,58.60
2018-05-27T15:06:57.474Z,58.70
2018-05-27T15:09:24.404Z,59.10
2018-05-27T15:11:51.346Z,59.00
2018-05-27T15:14:18.337Z,59.70
2018-05-27T15:16:45.198Z,59.70
2018-05-27T15:19:12.053Z,60.60
2018-05-27T15:21:38.995Z,61.50
2018-05-27T15:24:05.827Z,61.30
2018-05-27T15:26:33.108Z,61.50
2018-05-27T15:28:59.962Z,61.50
2018-05-27T15:31:26.934Z,61.50
2018-05-27T15:33:53.883Z,61.30
2018-05-27T15:36:20.755Z,61.60
2018-05-27T15:38:47.619Z,61.70
2018-05-27T15:41:14.462Z,61.50
2018-05-27T15:43:41.305Z,61.20
2018-05-27T15:46:08.180Z,61.20
2018-05-27T15:48:35.022Z,60.90
2018-05-27T15:51:01.865Z,60.80
2018-05-27T15:53:28.726Z,61.00
2018-05-27T15:55:55.590Z,60.80
2018-05-27T15:58:22.466Z,61.20
2018-05-27T16:00:49.330Z,60.80
2018-05-27T16:03:16.416Z,61.20
2018-05-27T16:05:43.451Z,61.30
2018-05-27T16:08:10.291Z,61.50
2018-05-27T16:10:37.255Z,61.70
2018-05-27T16:13:04.198Z,61.70
2018-05-27T16:15:31.085Z,61.70
2018-05-27T16:17:58.039Z,61.80
2018-05-27T16:20:25.056Z,61.80
2018-05-27T16:22:52.857Z,61.60
2018-05-27T16:25:19.746Z,61.60
2018-05-27T16:27:46.623Z,62.30
2018-05-27T16:30:13.531Z,63.00
2018-05-27T16:32:40.503Z,62.70
2018-05-27T16:35:07.372Z,64.10
2018-05-27T16:37:34.266Z,63.10
2018-05-27T16:40:01.374Z,64.50
2018-05-27T16:42:28.335Z,64.90
2018-05-27T16:44:55.188Z,64.90
2018-05-27T16:47:22.746Z,63.40
2018-05-27T16:49:49.644Z,65.20
2018-05-27T16:52:16.659Z,65.70
2018-05-27T16:54:43.627Z,66.80
2018-05-27T16:59:56.218Z,66.90
2018-05-27T17:02:23.251Z,66.80
2018-05-27T17:04:50.094Z,67.70
2018-05-27T17:07:16.972Z,67.10
2018-05-27T17:09:43.827Z,67.50
2018-05-27T17:12:10.800Z,68.10
2018-05-27T17:14:37.645Z,68.20
2018-05-27T17:17:04.903Z,68.50
2018-05-27T17:19:32.180Z,67.90
2018-05-27T17:21:59.069Z,67.90
2018-05-27T17:24:26.048Z,67.50
2018-05-27T17:26:53.189Z,68.60
2018-05-27T17:29:20.087Z,69.80
2018-05-27T17:31:47.335Z,71.70
2018-05-27T17:34:14.184Z,71.70
2018-05-27T17:36:41.027Z,72.20
2018-05-27T17:39:07.919Z,71.90
2018-05-27T17:41:34.783Z,72.00
2018-05-27T17:44:02.059Z,71.10
2018-05-27T17:46:28.947Z,71.10
2018-05-27T17:48:55.808Z,71.00
2018-05-27T17:51:22.678Z,70.40
2018-05-27T17:53:49.524Z,70.00
2018-05-27T17:56:16.382Z,70.50
2018-05-27T17:58:43.332Z,70.90
2018-05-27T18:01:10.172Z,71.30
2018-05-27T18:03:37.148Z,71.60
2018-05-27T18:06:04.050Z,71.30
2018-05-27T18:08:30.964Z,71.30
2018-05-27T18:10:57.836Z,71.70
2018-05-27T18:13:24.727Z,71.00
2018-05-27T18:15:51.598Z,71.30
2018-05-27T18:18:18.935Z,71.50
2018-05-27T18:20:45.864Z,71.50
2018-05-27T18:23:12.848Z,71.50
2018-05-27T18:25:39.959Z,70.70
2018-05-27T18:28:07.244Z,70.00
2018-05-27T18:30:34.219Z,70.00
2018-05-27T18:33:01.202Z,70.00
2018-05-27T18:35:28.323Z,69.40
2018-05-27T18:37:55.556Z,69.40
2018-05-27T18:40:22.826Z,69.60
2018-05-27T18:42:49.715Z,69.60
2018-05-27T18:45:16.578Z,69.20
2018-05-27T18:47:43.418Z,69.00
2018-05-27T18:50:10.290Z,69.00
2018-05-27T18:52:37.158Z,69.20
2018-05-27T18:55:04.263Z,69.00
2018-05-27T18:57:31.171Z,69.00
2018-05-27T18:59:58.030Z,69.20
2018-05-27T19:02:24.882Z,69.30
2018-05-27T19:04:51.860Z,69.40
2018-05-27T19:07:18.703Z,69.60
2018-05-27T19:09:45.570Z,69.50
2018-05-27T19:12:12.515Z,69.60
2018-05-27T19:14:39.369Z,69.40
2018-05-27T19:17:06.243Z,69.80
2018-05-27T19:19:33.199Z,70.80
2018-05-27T19:22:00.074Z,70.20
2018-05-27T19:24:27.015Z,70.20
2018-05-27T19:26:53.978Z,70.50
2018-05-27T19:29:20.820Z,70.70
2018-05-27T19:31:47.685Z,70.90
2018-05-27T19:34:14.531Z,71.20
2018-05-27T19:36:41.407Z,71.50
2018-05-27T19:39:08.976Z,71.70
2018-05-27T19:41:36.022Z,71.70
2018-05-27T19:44:03.390Z,71.70
2018-05-27T19:46:30.677Z,70.30
2018-05-27T19:48:57.663Z,70.30
2018-05-27T19:51:24.516Z,70.60
2018-05-27T19:53:51.429Z,70.00
2018-05-27T19:56:18.284Z,69.90
2018-05-27T19:58:45.151Z,70.00
2018-05-27T20:01:12.014Z,69.90
2018-05-27T20:03:38.888Z,70.00
2018-05-27T20:06:05.827Z,70.00
2018-05-27T20:08:32.683Z,70.20
2018-05-27T20:10:59.584Z,69.80
2018-05-27T20:13:26.597Z,69.50
2018-05-27T20:15:53.852Z,69.30
2018-05-27T20:18:21.170Z,69.10
2018-05-27T20:20:48.115Z,69.10
2018-05-27T20:23:14.963Z,68.90
2018-05-27T20:25:41.833Z,68.70
2018-05-27T20:28:08.774Z,68.40
2018-05-27T20:30:35.733Z,68.50
2018-05-27T20:33:02.626Z,68.30
2018-05-27T20:35:29.579Z,68.90
2018-05-27T20:37:56.454Z,68.90
2018-05-27T20:40:23.334Z,68.20
2018-05-27T20:42:50.672Z,67.50
2018-05-27T20:45:17.602Z,67.50
2018-05-27T20:47:44.479Z,67.80
2018-05-27T20:50:11.414Z,68.00
2018-05-27T20:52:38.395Z,68.00
2018-05-27T20:55:05.364Z,68.10
2018-05-27T20:57:32.259Z,68.30
2018-05-27T20:59:59.509Z,68.30
2018-05-27T21:02:26.409Z,68.30
2018-05-27T21:04:53.327Z,68.30
2018-05-27T21:07:20.575Z,68.70
2018-05-27T21:09:47.467Z,68.70
2018-05-27T21:12:14.798Z,69.20
2018-05-27T21:14:41.736Z,69.20
2018-05-27T21:17:08.630Z,69.50
2018-05-27T21:19:35.487Z,69.30
2018-05-27T21:22:02.370Z,69.30
2018-05-27T21:24:29.679Z,69.70
2018-05-27T21:26:56.593Z,69.70
2018-05-27T21:29:23.835Z,69.40
2018-05-27T21:31:51.075Z,69.50
2018-05-27T21:34:18.003Z,69.50
2018-05-27T21:36:44.849Z,69.80
2018-05-27T21:39:11.732Z,70.10
2018-05-27T21:41:38.684Z,70.10
2018-05-27T21:44:05.638Z,70.20
2018-05-27T21:46:32.498Z,70.80
2018-05-27T21:48:59.363Z,71.00
2018-05-27T21:51:26.324Z,70.70
2018-05-27T21:53:53.187Z,70.60
2018-05-27T21:56:20.059Z,70.90
2018-05-27T21:58:47.002Z,71.10
2018-05-27T22:01:13.953Z,71.90
2018-05-27T22:03:40.810Z,72.10
2018-05-27T22:06:07.679Z,72.60
2018-05-27T22:08:34.519Z,72.70
2018-05-27T22:11:01.395Z,72.50
2018-05-27T22:13:28.249Z,72.10
2018-05-27T22:15:55.182Z,72.00
2018-05-27T22:18:22.046Z,71.80
2018-05-27T22:20:49.014Z,71.50
2018-05-27T22:23:15.887Z,71.40
2018-05-27T22:25:42.739Z,71.40
2018-05-27T22:28:09.627Z,71.40
2018-05-27T22:30:36.514Z,71.50
2018-05-27T22:33:03.353Z,71.10
2018-05-27T22:35:30.612Z,71.00
2018-05-27T22:37:57.465Z,71.00
2018-05-27T22:40:24.347Z,71.30
2018-05-27T22:42:51.602Z,71.30
2018-05-27T22:45:18.912Z,71.30
2018-05-27T22:47:45.787Z,71.40
2018-05-27T22:50:12.806Z,71.00
2018-05-27T22:52:39.648Z,70.90
2018-05-27T22:55:06.915Z,70.50
2018-05-27T22:57:34.224Z,70.00
2018-05-27T23:00:01.085Z,70.00
2018-05-27T23:02:27.935Z,70.10
2018-05-27T23:04:54.799Z,70.10
2018-05-27T23:07:21.642Z,69.80
2018-05-27T23:09:48.595Z,69.60
2018-05-27T23:12:15.447Z,69.50
2018-05-27T23:14:42.291Z,69.10
2018-05-27T23:17:09.200Z,68.70
2018-05-27T23:19:36.047Z,68.20
2018-05-27T23:22:02.929Z,68.00
2018-05-27T23:24:29.835Z,68.60
2018-05-27T23:26:56.697Z,68.20
2018-05-27T23:29:23.576Z,67.80
2018-05-27T23:31:50.515Z,67.60
2018-05-27T23:34:17.472Z,67.20
2018-05-27T23:36:44.323Z,67.10
2018-05-27T23:39:11.180Z,67.10
2018-05-27T23:41:38.043Z,67.10
2018-05-27T23:44:04.999Z,67.20
2018-05-27T23:46:31.856Z,67.40
2018-05-27T23:48:58.726Z,67.40
2018-05-27T23:51:25.681Z,67.40
2018-05-27T23:53:52.544Z,67.00
2018-05-27T23:56:19.403Z,67.00
2018-05-27T23:58:46.255Z,66.70
